sensor_id;sensor_type;location;lat;lon;timestamp;temperature;humidity
13426;DHT22;6785;57.918;12.530;2024-03-02T00:00:50;3.60;99.90
13426;DHT22;6785;57.918;12.530;2024-03-02T00:03:17;3.70;99.90
13426;DHT22;6785;57.918;12.530;2024-03-02T00:05:49;3.60;99.90
13426;DHT22;6785;57.918;12.530;2024-03-02T00:08:22;3.70;99.90
13426;DHT22;6785;57.918;12.530;2024-03-02T00:10:51;3.70;99.90
13426;DHT22;6785;57.918;12.530;2024-03-02T00:13:20;3.70;99.90
13426;DHT22;6785;57.918;12.530;2024-03-02T00:15:52;3.70;99.90
13426;DHT22;6785;57.918;12.530;2024-03-02T00:18:20;3.60;99.90
13426;DHT22;6785;57.918;12.530;2024-03-02T00:20:47;3.70;99.90
13426;DHT22;6785;57.918;12.530;2024-03-02T00:23:15;3.60;99.90
13426;DHT22;6785;57.918;12.530;2024-03-02T00:25:45;3.60;99.90
13426;DHT22;6785;57.918;12.530;2024-03-02T00:28:19;3.60;99.90
13426;DHT22;6785;57.918;12.530;2024-03-02T00:30:58;3.60;99.90
13426;DHT22;6785;57.918;12.530;2024-03-02T00:33:31;3.60;99.90
13426;DHT22;6785;57.918;12.530;2024-03-02T00:35:59;3.50;99.90
13426;DHT22;6785;57.918;12.530;2024-03-02T00:38:26;3.50;99.90
13426;DHT22;6785;57.918;12.530;2024-03-02T00:40:54;3.40;99.90
13426;DHT22;6785;57.918;12.530;2024-03-02T00:43:42;3.40;99.90
13426;DHT22;6785;57.918;12.530;2024-03-02T00:46:11;3.40;99.90
13426;DHT22;6785;57.918;12.530;2024-03-02T00:48:41;3.40;99.90
13426;DHT22;6785;57.918;12.530;2024-03-02T00:51:12;3.40;99.90
13426;DHT22;6785;57.918;12.530;2024-03-02T00:53:39;3.40;99.90
13426;DHT22;6785;57.918;12.530;2024-03-02T00:56:09;3.40;99.90
13426;DHT22;6785;57.918;12.530;2024-03-02T00:58:37;3.30;99.90
13426;DHT22;6785;57.918;12.530;2024-03-02T01:01:03;3.20;99.90
13426;DHT22;6785;57.918;12.530;2024-03-02T01:03:32;3.20;99.90
13426;DHT22;6785;57.918;12.530;2024-03-02T01:05:59;3.20;99.90
13426;DHT22;6785;57.918;12.530;2024-03-02T01:08:27;3.20;99.90
13426;DHT22;6785;57.918;12.530;2024-03-02T01:10:54;3.10;99.90
13426;DHT22;6785;57.918;12.530;2024-03-02T01:13:22;3.10;99.90
13426;DHT22;6785;57.918;12.530;2024-03-02T01:15:49;3.10;99.90
13426;DHT22;6785;57.918;12.530;2024-03-02T01:18:16;3.10;99.90
13426;DHT22;6785;57.918;12.530;2024-03-02T01:20:44;3.10;99.90
13426;DHT22;6785;57.918;12.530;2024-03-02T01:23:11;3.10;99.90
13426;DHT22;6785;57.918;12.530;2024-03-02T01:25:38;3.20;99.90
13426;DHT22;6785;57.918;12.530;2024-03-02T01:28:05;3.20;99.90
13426;DHT22;6785;57.918;12.530;2024-03-02T01:30:32;3.10;99.90
13426;DHT22;6785;57.918;12.530;2024-03-02T01:32:59;3.10;99.90
13426;DHT22;6785;57.918;12.530;2024-03-02T01:35:27;3.00;99.90
13426;DHT22;6785;57.918;12.530;2024-03-02T01:37:56;3.00;99.90
13426;DHT22;6785;57.918;12.530;2024-03-02T01:40:23;3.00;99.90
13426;DHT22;6785;57.918;12.530;2024-03-02T01:42:52;3.00;99.90
13426;DHT22;6785;57.918;12.530;2024-03-02T01:45:19;3.00;99.90
13426;DHT22;6785;57.918;12.530;2024-03-02T01:47:45;3.00;99.90
13426;DHT22;6785;57.918;12.530;2024-03-02T01:50:12;3.00;99.90
13426;DHT22;6785;57.918;12.530;2024-03-02T01:52:40;3.00;99.90
13426;DHT22;6785;57.918;12.530;2024-03-02T01:55:09;3.10;99.90
13426;DHT22;6785;57.918;12.530;2024-03-02T01:57:35;3.00;99.90
13426;DHT22;6785;57.918;12.530;2024-03-02T02:00:03;3.00;99.90
13426;DHT22;6785;57.918;12.530;2024-03-02T02:02:31;3.10;99.90
13426;DHT22;6785;57.918;12.530;2024-03-02T02:04:58;3.00;99.90
13426;DHT22;6785;57.918;12.530;2024-03-02T02:07:24;3.00;99.90
13426;DHT22;6785;57.918;12.530;2024-03-02T02:09:51;3.00;99.90
13426;DHT22;6785;57.918;12.530;2024-03-02T02:12:20;2.90;99.90
13426;DHT22;6785;57.918;12.530;2024-03-02T02:14:50;2.90;99.90
13426;DHT22;6785;57.918;12.530;2024-03-02T02:17:17;3.00;99.90
13426;DHT22;6785;57.918;12.530;2024-03-02T02:19:43;2.90;99.90
13426;DHT22;6785;57.918;12.530;2024-03-02T02:22:11;2.80;99.90
13426;DHT22;6785;57.918;12.530;2024-03-02T02:24:40;2.90;99.90
13426;DHT22;6785;57.918;12.530;2024-03-02T02:27:07;2.90;99.90
13426;DHT22;6785;57.918;12.530;2024-03-02T02:29:34;2.90;99.90
13426;DHT22;6785;57.918;12.530;2024-03-02T02:32:03;2.80;99.90
13426;DHT22;6785;57.918;12.530;2024-03-02T02:34:30;2.90;99.90
13426;DHT22;6785;57.918;12.530;2024-03-02T02:36:57;2.90;99.90
13426;DHT22;6785;57.918;12.530;2024-03-02T02:39:25;3.00;99.90
13426;DHT22;6785;57.918;12.530;2024-03-02T02:41:53;3.10;99.90
13426;DHT22;6785;57.918;12.530;2024-03-02T02:44:20;3.10;99.90
13426;DHT22;6785;57.918;12.530;2024-03-02T02:46:47;3.30;99.90
13426;DHT22;6785;57.918;12.530;2024-03-02T02:49:14;3.20;99.90
13426;DHT22;6785;57.918;12.530;2024-03-02T02:51:42;3.20;99.90
13426;DHT22;6785;57.918;12.530;2024-03-02T02:54:09;3.20;99.90
13426;DHT22;6785;57.918;12.530;2024-03-02T02:56:38;3.20;99.90
13426;DHT22;6785;57.918;12.530;2024-03-02T02:59:05;3.30;99.90
13426;DHT22;6785;57.918;12.530;2024-03-02T03:01:31;3.30;99.90
13426;DHT22;6785;57.918;12.530;2024-03-02T03:03:58;3.30;99.90
13426;DHT22;6785;57.918;12.530;2024-03-02T03:06:25;3.30;99.90
13426;DHT22;6785;57.918;12.530;2024-03-02T03:08:53;3.40;99.90
13426;DHT22;6785;57.918;12.530;2024-03-02T03:11:19;3.30;99.90
13426;DHT22;6785;57.918;12.530;2024-03-02T03:13:49;3.40;99.90
13426;DHT22;6785;57.918;12.530;2024-03-02T03:16:16;3.40;99.90
13426;DHT22;6785;57.918;12.530;2024-03-02T03:18:45;3.30;99.90
13426;DHT22;6785;57.918;12.530;2024-03-02T03:21:12;3.40;99.90
13426;DHT22;6785;57.918;12.530;2024-03-02T03:23:39;3.50;99.90
13426;DHT22;6785;57.918;12.530;2024-03-02T03:26:06;3.40;99.90
13426;DHT22;6785;57.918;12.530;2024-03-02T03:28:32;3.50;99.90
13426;DHT22;6785;57.918;12.530;2024-03-02T03:31:01;3.50;99.90
13426;DHT22;6785;57.918;12.530;2024-03-02T03:33:27;3.50;99.90
13426;DHT22;6785;57.918;12.530;2024-03-02T03:35:54;3.40;99.90
13426;DHT22;6785;57.918;12.530;2024-03-02T03:38:21;3.40;99.90
13426;DHT22;6785;57.918;12.530;2024-03-02T03:40:48;3.40;99.90
13426;DHT22;6785;57.918;12.530;2024-03-02T03:43:15;3.30;99.90
13426;DHT22;6785;57.918;12.530;2024-03-02T03:45:41;3.30;99.90
13426;DHT22;6785;57.918;12.530;2024-03-02T03:48:10;3.30;99.90
13426;DHT22;6785;57.918;12.530;2024-03-02T03:50:36;3.40;99.90
13426;DHT22;6785;57.918;12.530;2024-03-02T03:53:04;3.30;99.90
13426;DHT22;6785;57.918;12.530;2024-03-02T03:55:30;3.30;99.90
13426;DHT22;6785;57.918;12.530;2024-03-02T03:57:57;3.50;99.90
13426;DHT22;6785;57.918;12.530;2024-03-02T04:00:24;3.40;99.90
13426;DHT22;6785;57.918;12.530;2024-03-02T04:02:51;3.30;99.90
13426;DHT22;6785;57.918;12.530;2024-03-02T04:05:19;3.40;99.90
13426;DHT22;6785;57.918;12.530;2024-03-02T04:07:46;3.40;99.90
13426;DHT22;6785;57.918;12.530;2024-03-02T04:10:13;3.40;99.90
13426;DHT22;6785;57.918;12.530;2024-03-02T04:12:41;3.40;99.90
13426;DHT22;6785;57.918;12.530;2024-03-02T04:15:08;3.40;99.90
13426;DHT22;6785;57.918;12.530;2024-03-02T04:17:35;3.40;99.90
13426;DHT22;6785;57.918;12.530;2024-03-02T04:20:02;3.40;99.90
13426;DHT22;6785;57.918;12.530;2024-03-02T04:22:33;3.40;99.90
13426;DHT22;6785;57.918;12.530;2024-03-02T04:25:01;3.50;99.90
13426;DHT22;6785;57.918;12.530;2024-03-02T04:27:30;3.50;99.90
13426;DHT22;6785;57.918;12.530;2024-03-02T04:29:57;3.50;99.90
13426;DHT22;6785;57.918;12.530;2024-03-02T04:32:23;3.60;99.90
13426;DHT22;6785;57.918;12.530;2024-03-02T04:34:50;3.60;99.90
13426;DHT22;6785;57.918;12.530;2024-03-02T04:37:17;3.70;99.90
13426;DHT22;6785;57.918;12.530;2024-03-02T04:39:45;3.80;99.90
13426;DHT22;6785;57.918;12.530;2024-03-02T04:42:12;3.80;99.90
13426;DHT22;6785;57.918;12.530;2024-03-02T04:44:39;3.80;99.90
13426;DHT22;6785;57.918;12.530;2024-03-02T04:47:05;3.80;99.90
13426;DHT22;6785;57.918;12.530;2024-03-02T04:49:32;3.90;99.90
13426;DHT22;6785;57.918;12.530;2024-03-02T04:51:59;3.90;99.90
13426;DHT22;6785;57.918;12.530;2024-03-02T04:54:26;3.90;99.90
13426;DHT22;6785;57.918;12.530;2024-03-02T04:56:54;4.00;99.90
13426;DHT22;6785;57.918;12.530;2024-03-02T04:59:21;4.00;99.90
13426;DHT22;6785;57.918;12.530;2024-03-02T05:01:48;4.00;99.90
13426;DHT22;6785;57.918;12.530;2024-03-02T05:04:14;4.00;99.90
13426;DHT22;6785;57.918;12.530;2024-03-02T05:06:41;4.00;99.90
13426;DHT22;6785;57.918;12.530;2024-03-02T05:09:08;4.00;99.90
13426;DHT22;6785;57.918;12.530;2024-03-02T05:11:35;4.10;99.90
13426;DHT22;6785;57.918;12.530;2024-03-02T05:14:37;4.10;99.90
13426;DHT22;6785;57.918;12.530;2024-03-02T05:17:05;4.10;99.90
13426;DHT22;6785;57.918;12.530;2024-03-02T05:19:31;4.20;99.90
13426;DHT22;6785;57.918;12.530;2024-03-02T05:21:58;4.20;99.90
13426;DHT22;6785;57.918;12.530;2024-03-02T05:24:25;4.30;99.90
13426;DHT22;6785;57.918;12.530;2024-03-02T05:26:54;4.20;99.90
13426;DHT22;6785;57.918;12.530;2024-03-02T05:29:21;4.30;99.90
13426;DHT22;6785;57.918;12.530;2024-03-02T05:31:49;4.30;99.90
13426;DHT22;6785;57.918;12.530;2024-03-02T05:34:17;4.30;99.90
13426;DHT22;6785;57.918;12.530;2024-03-02T05:36:44;4.30;99.90
13426;DHT22;6785;57.918;12.530;2024-03-02T05:39:11;4.30;99.90
13426;DHT22;6785;57.918;12.530;2024-03-02T05:41:37;4.40;99.90
13426;DHT22;6785;57.918;12.530;2024-03-02T05:44:04;4.40;99.90
13426;DHT22;6785;57.918;12.530;2024-03-02T05:46:31;4.30;99.90
13426;DHT22;6785;57.918;12.530;2024-03-02T05:49:00;4.40;99.90
13426;DHT22;6785;57.918;12.530;2024-03-02T05:51:26;4.40;99.90
13426;DHT22;6785;57.918;12.530;2024-03-02T05:53:55;4.40;99.90
13426;DHT22;6785;57.918;12.530;2024-03-02T05:56:22;4.40;99.90
13426;DHT22;6785;57.918;12.530;2024-03-02T05:58:49;4.50;99.90
13426;DHT22;6785;57.918;12.530;2024-03-02T06:01:26;4.40;99.90
13426;DHT22;6785;57.918;12.530;2024-03-02T06:03:55;4.50;99.90
13426;DHT22;6785;57.918;12.530;2024-03-02T06:06:23;4.50;99.90
13426;DHT22;6785;57.918;12.530;2024-03-02T06:08:50;4.50;99.90
13426;DHT22;6785;57.918;12.530;2024-03-02T06:11:17;4.60;99.90
13426;DHT22;6785;57.918;12.530;2024-03-02T06:13:43;4.60;99.90
13426;DHT22;6785;57.918;12.530;2024-03-02T06:16:10;4.60;99.90
13426;DHT22;6785;57.918;12.530;2024-03-02T06:18:37;4.70;99.90
13426;DHT22;6785;57.918;12.530;2024-03-02T06:21:04;4.70;99.90
13426;DHT22;6785;57.918;12.530;2024-03-02T06:23:33;4.70;99.90
13426;DHT22;6785;57.918;12.530;2024-03-02T06:26:00;4.80;99.90
13426;DHT22;6785;57.918;12.530;2024-03-02T06:28:28;4.80;99.90
13426;DHT22;6785;57.918;12.530;2024-03-02T06:30:54;4.90;99.90
13426;DHT22;6785;57.918;12.530;2024-03-02T06:33:21;4.90;99.90
13426;DHT22;6785;57.918;12.530;2024-03-02T06:35:48;5.00;99.90
13426;DHT22;6785;57.918;12.530;2024-03-02T06:38:15;5.00;99.90
13426;DHT22;6785;57.918;12.530;2024-03-02T06:40:43;5.10;99.90
13426;DHT22;6785;57.918;12.530;2024-03-02T06:43:10;5.20;99.90
13426;DHT22;6785;57.918;12.530;2024-03-02T06:45:37;5.20;99.90
13426;DHT22;6785;57.918;12.530;2024-03-02T06:48:05;5.20;99.90
13426;DHT22;6785;57.918;12.530;2024-03-02T06:50:32;5.30;99.90
13426;DHT22;6785;57.918;12.530;2024-03-02T06:52:59;5.30;99.90
13426;DHT22;6785;57.918;12.530;2024-03-02T06:55:26;5.40;99.90
13426;DHT22;6785;57.918;12.530;2024-03-02T06:57:54;5.40;99.90
13426;DHT22;6785;57.918;12.530;2024-03-02T07:00:21;5.40;99.90
13426;DHT22;6785;57.918;12.530;2024-03-02T07:02:48;5.50;99.90
13426;DHT22;6785;57.918;12.530;2024-03-02T07:05:15;5.50;99.90
13426;DHT22;6785;57.918;12.530;2024-03-02T07:07:42;5.60;99.90
13426;DHT22;6785;57.918;12.530;2024-03-02T07:10:09;5.70;99.90
13426;DHT22;6785;57.918;12.530;2024-03-02T07:12:35;5.70;99.90
13426;DHT22;6785;57.918;12.530;2024-03-02T07:15:05;5.70;99.90
13426;DHT22;6785;57.918;12.530;2024-03-02T07:17:50;5.80;99.90
13426;DHT22;6785;57.918;12.530;2024-03-02T07:20:17;5.80;99.90
13426;DHT22;6785;57.918;12.530;2024-03-02T07:22:44;5.80;99.90
13426;DHT22;6785;57.918;12.530;2024-03-02T07:25:11;5.80;99.90
13426;DHT22;6785;57.918;12.530;2024-03-02T07:27:38;5.90;99.90
13426;DHT22;6785;57.918;12.530;2024-03-02T07:30:07;5.90;99.90
13426;DHT22;6785;57.918;12.530;2024-03-02T07:32:34;6.00;99.90
13426;DHT22;6785;57.918;12.530;2024-03-02T07:35:01;6.00;99.90
13426;DHT22;6785;57.918;12.530;2024-03-02T07:37:29;6.00;99.90
13426;DHT22;6785;57.918;12.530;2024-03-02T07:39:56;6.00;99.90
13426;DHT22;6785;57.918;12.530;2024-03-02T07:42:23;6.10;99.90
13426;DHT22;6785;57.918;12.530;2024-03-02T07:44:49;6.10;99.90
13426;DHT22;6785;57.918;12.530;2024-03-02T07:47:18;6.20;99.90
13426;DHT22;6785;57.918;12.530;2024-03-02T07:49:45;6.30;99.90
13426;DHT22;6785;57.918;12.530;2024-03-02T07:52:12;6.20;99.90
13426;DHT22;6785;57.918;12.530;2024-03-02T07:54:39;6.30;99.90
13426;DHT22;6785;57.918;12.530;2024-03-02T07:57:06;6.30;99.90
13426;DHT22;6785;57.918;12.530;2024-03-02T07:59:34;6.30;99.90
13426;DHT22;6785;57.918;12.530;2024-03-02T08:02:01;6.30;99.90
13426;DHT22;6785;57.918;12.530;2024-03-02T08:04:29;6.40;99.90
13426;DHT22;6785;57.918;12.530;2024-03-02T08:06:56;6.40;99.90
13426;DHT22;6785;57.918;12.530;2024-03-02T08:09:23;6.40;99.90
13426;DHT22;6785;57.918;12.530;2024-03-02T08:11:52;6.40;99.90
13426;DHT22;6785;57.918;12.530;2024-03-02T08:14:19;6.40;99.90
13426;DHT22;6785;57.918;12.530;2024-03-02T08:16:46;6.40;99.90
13426;DHT22;6785;57.918;12.530;2024-03-02T08:19:12;6.30;99.90
13426;DHT22;6785;57.918;12.530;2024-03-02T08:21:41;6.40;99.90
13426;DHT22;6785;57.918;12.530;2024-03-02T08:24:09;6.40;99.90
13426;DHT22;6785;57.918;12.530;2024-03-02T08:26:36;6.50;99.90
13426;DHT22;6785;57.918;12.530;2024-03-02T08:29:02;6.50;99.90
13426;DHT22;6785;57.918;12.530;2024-03-02T08:31:29;6.50;99.90
13426;DHT22;6785;57.918;12.530;2024-03-02T08:33:56;6.50;99.90
13426;DHT22;6785;57.918;12.530;2024-03-02T08:36:24;6.50;99.90
13426;DHT22;6785;57.918;12.530;2024-03-02T08:38:52;6.60;99.90
13426;DHT22;6785;57.918;12.530;2024-03-02T08:41:19;6.60;99.90
13426;DHT22;6785;57.918;12.530;2024-03-02T08:43:46;6.60;99.90
13426;DHT22;6785;57.918;12.530;2024-03-02T08:46:13;6.60;99.90
13426;DHT22;6785;57.918;12.530;2024-03-02T08:48:40;6.80;99.90
13426;DHT22;6785;57.918;12.530;2024-03-02T08:51:07;6.80;99.90
13426;DHT22;6785;57.918;12.530;2024-03-02T08:53:35;6.90;99.90
13426;DHT22;6785;57.918;12.530;2024-03-02T08:56:05;6.90;99.90
13426;DHT22;6785;57.918;12.530;2024-03-02T08:58:32;7.00;99.90
13426;DHT22;6785;57.918;12.530;2024-03-02T09:00:59;7.00;99.90
13426;DHT22;6785;57.918;12.530;2024-03-02T09:03:25;6.90;99.90
13426;DHT22;6785;57.918;12.530;2024-03-02T09:05:52;7.00;99.90
13426;DHT22;6785;57.918;12.530;2024-03-02T09:08:19;7.00;99.90
13426;DHT22;6785;57.918;12.530;2024-03-02T09:10:46;7.00;99.90
13426;DHT22;6785;57.918;12.530;2024-03-02T09:13:14;7.00;99.90
13426;DHT22;6785;57.918;12.530;2024-03-02T09:15:41;7.00;99.90
13426;DHT22;6785;57.918;12.530;2024-03-02T09:18:10;7.00;99.90
13426;DHT22;6785;57.918;12.530;2024-03-02T09:20:36;7.00;99.90
13426;DHT22;6785;57.918;12.530;2024-03-02T09:23:04;7.10;99.90
13426;DHT22;6785;57.918;12.530;2024-03-02T09:25:30;7.10;99.90
13426;DHT22;6785;57.918;12.530;2024-03-02T09:27:57;7.10;99.90
13426;DHT22;6785;57.918;12.530;2024-03-02T09:30:26;7.20;99.90
13426;DHT22;6785;57.918;12.530;2024-03-02T09:32:52;7.30;99.90
13426;DHT22;6785;57.918;12.530;2024-03-02T09:35:19;7.30;99.90
13426;DHT22;6785;57.918;12.530;2024-03-02T09:37:46;7.30;99.90
13426;DHT22;6785;57.918;12.530;2024-03-02T09:40:13;7.40;99.90
13426;DHT22;6785;57.918;12.530;2024-03-02T09:42:42;7.40;99.90
13426;DHT22;6785;57.918;12.530;2024-03-02T09:45:09;7.40;99.90
13426;DHT22;6785;57.918;12.530;2024-03-02T09:47:38;7.50;99.90
13426;DHT22;6785;57.918;12.530;2024-03-02T09:50:06;7.60;99.90
13426;DHT22;6785;57.918;12.530;2024-03-02T09:52:33;7.60;99.90
13426;DHT22;6785;57.918;12.530;2024-03-02T09:55:00;7.70;99.90
13426;DHT22;6785;57.918;12.530;2024-03-02T09:57:27;7.70;99.90
13426;DHT22;6785;57.918;12.530;2024-03-02T09:59:54;7.80;99.90
13426;DHT22;6785;57.918;12.530;2024-03-02T10:02:21;7.80;99.90
13426;DHT22;6785;57.918;12.530;2024-03-02T10:04:50;7.80;99.90
13426;DHT22;6785;57.918;12.530;2024-03-02T10:07:18;7.90;99.90
13426;DHT22;6785;57.918;12.530;2024-03-02T10:09:46;7.90;99.90
13426;DHT22;6785;57.918;12.530;2024-03-02T10:12:14;8.00;99.90
13426;DHT22;6785;57.918;12.530;2024-03-02T10:14:41;8.00;99.90
13426;DHT22;6785;57.918;12.530;2024-03-02T10:17:09;8.00;99.90
13426;DHT22;6785;57.918;12.530;2024-03-02T10:19:37;8.10;99.90
13426;DHT22;6785;57.918;12.530;2024-03-02T10:22:06;8.10;99.90
13426;DHT22;6785;57.918;12.530;2024-03-02T10:24:38;8.20;99.90
13426;DHT22;6785;57.918;12.530;2024-03-02T10:27:08;8.20;99.90
13426;DHT22;6785;57.918;12.530;2024-03-02T10:29:39;8.30;99.90
13426;DHT22;6785;57.918;12.530;2024-03-02T10:32:09;8.30;99.90
13426;DHT22;6785;57.918;12.530;2024-03-02T10:34:36;8.20;99.90
13426;DHT22;6785;57.918;12.530;2024-03-02T10:37:05;8.30;99.90
13426;DHT22;6785;57.918;12.530;2024-03-02T10:39:34;8.30;99.90
13426;DHT22;6785;57.918;12.530;2024-03-02T10:42:03;8.30;99.90
13426;DHT22;6785;57.918;12.530;2024-03-02T10:44:30;8.30;99.90
13426;DHT22;6785;57.918;12.530;2024-03-02T10:47:00;8.30;99.90
13426;DHT22;6785;57.918;12.530;2024-03-02T10:49:29;8.20;99.90
13426;DHT22;6785;57.918;12.530;2024-03-02T10:51:57;8.20;99.90
13426;DHT22;6785;57.918;12.530;2024-03-02T10:54:26;8.20;99.90
13426;DHT22;6785;57.918;12.530;2024-03-02T10:56:56;8.20;99.90
13426;DHT22;6785;57.918;12.530;2024-03-02T10:59:27;8.20;99.90
13426;DHT22;6785;57.918;12.530;2024-03-02T11:01:57;8.20;99.90
13426;DHT22;6785;57.918;12.530;2024-03-02T11:04:26;8.20;99.90
13426;DHT22;6785;57.918;12.530;2024-03-02T11:06:59;8.20;99.90
13426;DHT22;6785;57.918;12.530;2024-03-02T11:09:28;8.20;99.90
13426;DHT22;6785;57.918;12.530;2024-03-02T11:12:02;8.20;99.90
13426;DHT22;6785;57.918;12.530;2024-03-02T11:14:30;8.20;99.90
13426;DHT22;6785;57.918;12.530;2024-03-02T11:16:59;8.20;99.90
13426;DHT22;6785;57.918;12.530;2024-03-02T11:19:27;8.20;99.90
13426;DHT22;6785;57.918;12.530;2024-03-02T11:21:54;8.30;99.90
13426;DHT22;6785;57.918;12.530;2024-03-02T11:24:33;8.20;99.90
13426;DHT22;6785;57.918;12.530;2024-03-02T11:27:01;8.30;99.90
13426;DHT22;6785;57.918;12.530;2024-03-02T11:29:44;8.30;99.90
13426;DHT22;6785;57.918;12.530;2024-03-02T11:32:20;8.30;99.90
13426;DHT22;6785;57.918;12.530;2024-03-02T11:34:48;8.30;99.90
13426;DHT22;6785;57.918;12.530;2024-03-02T11:37:17;8.40;99.90
13426;DHT22;6785;57.918;12.530;2024-03-02T11:39:49;8.40;99.90
13426;DHT22;6785;57.918;12.530;2024-03-02T11:42:17;8.40;99.90
13426;DHT22;6785;57.918;12.530;2024-03-02T11:44:45;8.40;99.90
13426;DHT22;6785;57.918;12.530;2024-03-02T11:47:14;8.50;99.90
13426;DHT22;6785;57.918;12.530;2024-03-02T11:49:42;8.50;99.90
13426;DHT22;6785;57.918;12.530;2024-03-02T11:52:11;8.70;99.90
13426;DHT22;6785;57.918;12.530;2024-03-02T11:54:40;8.70;99.90
13426;DHT22;6785;57.918;12.530;2024-03-02T11:57:14;8.70;99.90
13426;DHT22;6785;57.918;12.530;2024-03-02T11:59:41;8.70;99.90
13426;DHT22;6785;57.918;12.530;2024-03-02T12:02:14;8.80;99.90
13426;DHT22;6785;57.918;12.530;2024-03-02T12:04:42;8.80;99.90
13426;DHT22;6785;57.918;12.530;2024-03-02T12:07:11;8.90;99.90
13426;DHT22;6785;57.918;12.530;2024-03-02T12:09:38;8.80;99.90
13426;DHT22;6785;57.918;12.530;2024-03-02T12:12:06;8.80;99.90
13426;DHT22;6785;57.918;12.530;2024-03-02T12:14:35;8.80;99.90
13426;DHT22;6785;57.918;12.530;2024-03-02T12:17:05;8.80;99.90
13426;DHT22;6785;57.918;12.530;2024-03-02T12:19:32;8.70;99.90
13426;DHT22;6785;57.918;12.530;2024-03-02T12:22:00;8.70;99.90
13426;DHT22;6785;57.918;12.530;2024-03-02T12:24:28;8.70;99.90
13426;DHT22;6785;57.918;12.530;2024-03-02T12:26:55;8.70;99.90
13426;DHT22;6785;57.918;12.530;2024-03-02T12:29:23;8.70;99.90
13426;DHT22;6785;57.918;12.530;2024-03-02T12:31:52;8.70;99.90
13426;DHT22;6785;57.918;12.530;2024-03-02T12:34:21;8.70;99.90
13426;DHT22;6785;57.918;12.530;2024-03-02T12:36:48;8.70;99.90
13426;DHT22;6785;57.918;12.530;2024-03-02T12:39:18;8.70;99.90
13426;DHT22;6785;57.918;12.530;2024-03-02T12:41:46;8.60;99.90
13426;DHT22;6785;57.918;12.530;2024-03-02T12:44:16;8.60;99.90
13426;DHT22;6785;57.918;12.530;2024-03-02T12:46:43;8.60;99.90
13426;DHT22;6785;57.918;12.530;2024-03-02T12:49:12;8.60;99.90
13426;DHT22;6785;57.918;12.530;2024-03-02T12:51:40;8.60;99.90
13426;DHT22;6785;57.918;12.530;2024-03-02T12:54:07;8.60;99.90
13426;DHT22;6785;57.918;12.530;2024-03-02T12:56:35;8.60;99.90
13426;DHT22;6785;57.918;12.530;2024-03-02T12:59:03;8.60;99.90
13426;DHT22;6785;57.918;12.530;2024-03-02T13:01:30;8.60;99.90
13426;DHT22;6785;57.918;12.530;2024-03-02T13:03:58;8.50;99.90
13426;DHT22;6785;57.918;12.530;2024-03-02T13:06:27;8.60;99.90
13426;DHT22;6785;57.918;12.530;2024-03-02T13:08:54;8.60;99.90
13426;DHT22;6785;57.918;12.530;2024-03-02T13:11:22;8.60;99.90
13426;DHT22;6785;57.918;12.530;2024-03-02T13:13:50;8.60;99.90
13426;DHT22;6785;57.918;12.530;2024-03-02T13:16:18;8.60;99.90
13426;DHT22;6785;57.918;12.530;2024-03-02T13:18:45;8.60;99.90
13426;DHT22;6785;57.918;12.530;2024-03-02T13:21:12;8.60;99.90
13426;DHT22;6785;57.918;12.530;2024-03-02T13:23:40;8.60;99.90
13426;DHT22;6785;57.918;12.530;2024-03-02T13:26:07;8.60;99.90
13426;DHT22;6785;57.918;12.530;2024-03-02T13:28:36;8.60;99.90
13426;DHT22;6785;57.918;12.530;2024-03-02T13:31:04;8.70;99.90
13426;DHT22;6785;57.918;12.530;2024-03-02T13:33:34;8.70;99.90
13426;DHT22;6785;57.918;12.530;2024-03-02T13:36:02;8.70;99.90
13426;DHT22;6785;57.918;12.530;2024-03-02T13:38:29;8.70;99.90
13426;DHT22;6785;57.918;12.530;2024-03-02T13:40:57;8.80;99.90
13426;DHT22;6785;57.918;12.530;2024-03-02T13:43:26;8.70;99.90
13426;DHT22;6785;57.918;12.530;2024-03-02T13:46:03;8.70;99.90
13426;DHT22;6785;57.918;12.530;2024-03-02T13:48:30;8.70;99.90
13426;DHT22;6785;57.918;12.530;2024-03-02T13:50:57;8.70;99.90
13426;DHT22;6785;57.918;12.530;2024-03-02T13:53:25;8.80;99.90
13426;DHT22;6785;57.918;12.530;2024-03-02T13:55:51;8.80;99.90
13426;DHT22;6785;57.918;12.530;2024-03-02T13:58:23;8.80;99.90
13426;DHT22;6785;57.918;12.530;2024-03-02T14:00:51;8.70;99.90
13426;DHT22;6785;57.918;12.530;2024-03-02T14:03:18;8.80;99.90
13426;DHT22;6785;57.918;12.530;2024-03-02T14:05:45;8.70;99.90
13426;DHT22;6785;57.918;12.530;2024-03-02T14:08:12;8.70;99.90
13426;DHT22;6785;57.918;12.530;2024-03-02T14:10:39;8.70;99.90
13426;DHT22;6785;57.918;12.530;2024-03-02T14:13:10;8.70;99.90
13426;DHT22;6785;57.918;12.530;2024-03-02T14:15:38;8.80;99.90
13426;DHT22;6785;57.918;12.530;2024-03-02T14:18:06;8.80;99.90
13426;DHT22;6785;57.918;12.530;2024-03-02T14:20:35;8.80;99.90
13426;DHT22;6785;57.918;12.530;2024-03-02T14:23:03;8.80;99.90
13426;DHT22;6785;57.918;12.530;2024-03-02T14:25:30;8.80;99.90
13426;DHT22;6785;57.918;12.530;2024-03-02T14:27:59;8.80;99.90
13426;DHT22;6785;57.918;12.530;2024-03-02T14:30:26;8.80;99.90
13426;DHT22;6785;57.918;12.530;2024-03-02T14:32:54;8.90;99.90
13426;DHT22;6785;57.918;12.530;2024-03-02T14:35:21;8.90;99.90
13426;DHT22;6785;57.918;12.530;2024-03-02T14:37:48;8.90;99.90
13426;DHT22;6785;57.918;12.530;2024-03-02T14:40:15;9.00;99.90
13426;DHT22;6785;57.918;12.530;2024-03-02T14:42:42;9.00;99.90
13426;DHT22;6785;57.918;12.530;2024-03-02T14:45:13;9.00;99.90
13426;DHT22;6785;57.918;12.530;2024-03-02T14:47:40;9.00;99.90
13426;DHT22;6785;57.918;12.530;2024-03-02T14:50:09;9.00;99.90
13426;DHT22;6785;57.918;12.530;2024-03-02T14:52:36;9.00;99.90
13426;DHT22;6785;57.918;12.530;2024-03-02T14:55:03;8.90;99.90
13426;DHT22;6785;57.918;12.530;2024-03-02T14:57:33;9.00;99.90
13426;DHT22;6785;57.918;12.530;2024-03-02T14:59:59;9.00;99.90
13426;DHT22;6785;57.918;12.530;2024-03-02T15:02:27;9.00;99.90
13426;DHT22;6785;57.918;12.530;2024-03-02T15:04:56;9.00;99.90
13426;DHT22;6785;57.918;12.530;2024-03-02T15:07:24;9.00;99.90
13426;DHT22;6785;57.918;12.530;2024-03-02T15:09:51;8.90;99.90
13426;DHT22;6785;57.918;12.530;2024-03-02T15:12:17;8.90;99.90
13426;DHT22;6785;57.918;12.530;2024-03-02T15:14:47;8.90;99.90
13426;DHT22;6785;57.918;12.530;2024-03-02T15:17:14;8.90;99.90
13426;DHT22;6785;57.918;12.530;2024-03-02T15:19:42;8.90;99.90
13426;DHT22;6785;57.918;12.530;2024-03-02T15:22:09;8.90;99.90
13426;DHT22;6785;57.918;12.530;2024-03-02T15:24:38;8.90;99.90
13426;DHT22;6785;57.918;12.530;2024-03-02T15:27:06;8.80;99.90
13426;DHT22;6785;57.918;12.530;2024-03-02T15:29:34;8.80;99.90
13426;DHT22;6785;57.918;12.530;2024-03-02T15:32:01;8.80;99.90
13426;DHT22;6785;57.918;12.530;2024-03-02T15:34:31;8.80;99.90
13426;DHT22;6785;57.918;12.530;2024-03-02T15:36:58;8.80;99.90
13426;DHT22;6785;57.918;12.530;2024-03-02T15:39:25;8.80;99.90
13426;DHT22;6785;57.918;12.530;2024-03-02T15:41:54;8.80;99.90
13426;DHT22;6785;57.918;12.530;2024-03-02T15:44:20;8.80;99.90
13426;DHT22;6785;57.918;12.530;2024-03-02T15:46:50;8.80;99.90
13426;DHT22;6785;57.918;12.530;2024-03-02T15:49:17;8.90;99.90